createdAt,value
2022-08-17T00:02:26.651Z,54.40
2022-08-17T00:04:54.967Z,50.80
2022-08-17T00:07:22.038Z,50.13
2022-08-17T00:09:48.955Z,51.63
2022-08-17T00:12:43.534Z,50.07
2022-08-17T00:15:04.795Z,52.77
2022-08-17T00:17:31.599Z,51.17
2022-08-17T00:19:59.726Z,53.87
2022-08-17T00:22:31.261Z,54.27
2022-08-17T00:25:07.349Z,55.93
2022-08-17T00:27:34.708Z,52.50
2022-08-17T00:30:01.732Z,56.93
2022-08-17T00:33:12.527Z,59.13
2022-08-17T00:35:19.266Z,58.10
2022-08-17T00:37:46.081Z,57.43
2022-08-17T00:40:15.408Z,57.73
2022-08-17T00:42:43.821Z,56.67
2022-08-17T00:45:13.980Z,59.90
2022-08-17T00:47:41.640Z,59.30
2022-08-17T00:50:11.104Z,62.17
2022-08-17T00:52:47.728Z,61.97
2022-08-17T00:55:14.881Z,64.97
2022-08-17T00:57:51.268Z,59.67
2022-08-17T01:00:26.870Z,62.43
2022-08-17T01:03:02.099Z,66.17
2022-08-17T01:05:32.037Z,68.43
2022-08-17T01:08:01.221Z,62.17
2022-08-17T01:10:58.482Z,63.97
2022-08-17T01:13:24.839Z,63.23
2022-08-17T01:16:20.286Z,66.63
2022-08-17T01:18:51.016Z,67.70
2022-08-17T01:21:43.131Z,61.07
2022-08-17T01:24:10.182Z,61.80
2022-08-17T01:26:39.242Z,62.30
2022-08-17T01:29:06.900Z,62.67
2022-08-17T01:31:38.081Z,62.40
2022-08-17T01:34:09.010Z,66.83
2022-08-17T01:36:38.730Z,63.57
2022-08-17T01:39:09.407Z,62.47
2022-08-17T01:41:37.944Z,66.20
2022-08-17T01:44:07.430Z,66.27
2022-08-17T01:46:36.534Z,59.40
2022-08-17T01:49:07.876Z,61.77
2022-08-17T01:51:34.707Z,64.20
2022-08-17T01:54:08.435Z,61.97
2022-08-17T01:56:38.661Z,61.40
2022-08-17T01:59:05.631Z,66.07
2022-08-17T02:01:34.620Z,65.00
2022-08-17T02:04:02.184Z,64.93
2022-08-17T02:06:43.977Z,63.33
2022-08-17T02:09:16.594Z,66.23
2022-08-17T02:11:44.446Z,65.80
2022-08-17T02:14:12.483Z,62.60
2022-08-17T02:16:41.390Z,58.73
2022-08-17T02:19:12.863Z,64.53
2022-08-17T02:21:40.772Z,62.80
2022-08-17T02:24:11.681Z,60.27
2022-08-17T02:26:38.594Z,63.80
2022-08-17T02:29:05.467Z,65.33
2022-08-17T02:31:32.327Z,66.33
2022-08-17T02:34:04.530Z,62.87
2022-08-17T02:36:36.124Z,66.20
2022-08-17T02:39:06.627Z,62.13
2022-08-17T02:41:33.914Z,62.80
2022-08-17T02:44:01.173Z,61.83
2022-08-17T02:46:28.638Z,63.63
2022-08-17T02:48:55.741Z,64.70
2022-08-17T02:51:23.093Z,61.60
2022-08-17T02:53:50.177Z,64.27
2022-08-17T02:56:17.027Z,61.33
2022-08-17T02:58:44.248Z,66.27
2022-08-17T03:01:11.230Z,63.13
2022-08-17T03:03:40.677Z,60.30
2022-08-17T03:06:08.208Z,66.60
2022-08-17T03:08:37.546Z,59.57
2022-08-17T03:11:04.748Z,62.00
2022-08-17T03:13:31.803Z,58.90
2022-08-17T03:15:58.955Z,59.03
2022-08-17T03:18:27.182Z,58.90
2022-08-17T03:20:57.254Z,58.97
2022-08-17T03:23:25.979Z,59.77
2022-08-17T03:25:55.604Z,62.57
2022-08-17T03:28:23.525Z,59.03
2022-08-17T03:30:51.438Z,55.90
2022-08-17T03:33:19.185Z,59.00
2022-08-17T03:35:46.251Z,55.73
2022-08-17T03:38:15.164Z,58.37
2022-08-17T03:40:57.564Z,58.00
2022-08-17T03:43:31.460Z,62.23
2022-08-17T03:46:28.725Z,57.37
2022-08-17T03:49:23.533Z,60.20
2022-08-17T03:52:08.842Z,55.63
2022-08-17T03:54:54.821Z,56.97
2022-08-17T03:57:21.720Z,55.20
2022-08-17T03:59:48.557Z,55.43
2022-08-17T04:02:23.468Z,56.70
2022-08-17T04:04:51.111Z,56.70
2022-08-17T04:07:22.763Z,52.60
2022-08-17T04:09:50.178Z,57.97
2022-08-17T04:12:21.449Z,56.13
2022-08-17T04:14:53.223Z,53.07
2022-08-17T04:17:26.731Z,53.97
2022-08-17T04:19:59.658Z,53.43
2022-08-17T04:22:31.401Z,53.63
2022-08-17T04:25:02.292Z,54.90
2022-08-17T04:27:29.076Z,57.27
2022-08-17T04:29:56.295Z,55.47
2022-08-17T04:33:00.578Z,59.13
2022-08-17T04:35:10.255Z,54.33
2022-08-17T04:37:37.080Z,52.00
2022-08-17T04:40:36.836Z,55.43
2022-08-17T04:43:13.978Z,56.77
2022-08-17T04:45:55.356Z,57.90
2022-08-17T04:48:35.236Z,58.63
2022-08-17T04:51:09.883Z,53.93
2022-08-17T04:53:38.386Z,54.07
2022-08-17T04:56:06.066Z,56.43
2022-08-17T04:58:33.258Z,53.33
2022-08-17T05:01:00.245Z,55.53
2022-08-17T05:03:27.577Z,50.23
2022-08-17T05:05:54.420Z,49.33
2022-08-17T05:08:21.701Z,53.00
2022-08-17T05:10:49.418Z,47.50
2022-08-17T05:13:24.664Z,45.07
2022-08-17T05:15:55.184Z,46.40
2022-08-17T05:18:22.543Z,43.77
2022-08-17T05:20:52.607Z,42.97
2022-08-17T05:23:21.468Z,40.57
2022-08-17T05:25:51.145Z,37.50
2022-08-17T05:28:24.031Z,39.50
2022-08-17T05:30:51.125Z,39.07
2022-08-17T05:33:21.078Z,40.20
2022-08-17T05:35:50.514Z,43.13
2022-08-17T05:38:19.784Z,42.40
2022-08-17T05:40:46.839Z,42.60
2022-08-17T05:43:16.575Z,40.57
2022-08-17T05:46:07.484Z,42.53
2022-08-17T05:48:39.989Z,38.73
2022-08-17T05:51:26.118Z,38.00
2022-08-17T05:54:11.188Z,35.57
2022-08-17T05:56:43.757Z,28.90
2022-08-17T05:59:37.155Z,26.80
2022-08-17T06:02:21.223Z,25.97
2022-08-17T06:04:47.988Z,27.67
2022-08-17T06:07:34.229Z,29.63
2022-08-17T06:10:17.342Z,28.43
2022-08-17T06:13:05.469Z,30.00
2022-08-17T06:15:58.185Z,29.47
2022-08-17T06:18:41.226Z,30.67
2022-08-17T06:21:13.532Z,28.47
2022-08-17T06:23:47.245Z,29.87
2022-08-17T06:26:38.503Z,29.57
2022-08-17T06:29:29.116Z,29.00
2022-08-17T06:31:56.181Z,28.13
2022-08-17T06:34:23.005Z,27.87
2022-08-17T06:37:13.552Z,24.70
2022-08-17T06:39:51.775Z,22.10
2022-08-17T06:43:02.814Z,18.33
2022-08-17T06:45:52.562Z,15.77
2022-08-17T06:48:32.788Z,15.50
2022-08-17T06:51:23.627Z,15.30
2022-08-17T06:54:05.201Z,16.23
2022-08-17T06:56:52.952Z,14.30
2022-08-17T06:59:53.210Z,14.60
2022-08-17T07:03:02.682Z,13.00
2022-08-17T07:05:45.296Z,12.43
2022-08-17T07:08:27.726Z,11.07
2022-08-17T07:11:01.269Z,10.27
2022-08-17T07:13:54.125Z,9.27
2022-08-17T07:16:28.095Z,7.57
2022-08-17T07:18:56.896Z,6.77
2022-08-17T07:21:34.245Z,6.23
2022-08-17T07:24:29.198Z,6.27
2022-08-17T07:27:21.221Z,6.03
2022-08-17T07:30:21.848Z,5.77
2022-08-17T07:32:57.840Z,5.70
2022-08-17T07:35:31.252Z,5.70
2022-08-17T07:38:25.859Z,5.20
2022-08-17T07:41:02.959Z,5.30
2022-08-17T07:43:37.784Z,5.20
2022-08-17T07:46:25.093Z,4.33
2022-08-17T07:48:56.641Z,5.00
2022-08-17T07:51:27.907Z,4.30
2022-08-17T07:54:13.066Z,5.00
2022-08-17T07:56:52.476Z,4.57
2022-08-17T07:59:21.831Z,4.77
2022-08-17T08:01:57.435Z,4.77
2022-08-17T08:07:57.286Z,4.80
2022-08-17T08:10:30.381Z,4.90
2022-08-17T08:13:13.027Z,5.40
2022-08-17T08:15:54.323Z,4.67
2022-08-17T08:18:54.719Z,4.67
2022-08-17T08:21:31.939Z,4.10
2022-08-17T08:24:17.172Z,4.93
2022-08-17T08:26:47.723Z,4.20
2022-08-17T08:29:14.897Z,5.03
2022-08-17T08:32:28.521Z,4.67
2022-08-17T08:35:38.072Z,4.93
2022-08-17T08:38:15.476Z,4.20
2022-08-17T08:41:00.521Z,4.80
2022-08-17T08:43:50.877Z,5.10
2022-08-17T08:46:50.144Z,4.73
2022-08-17T08:50:02.731Z,4.90
2022-08-17T08:52:34.059Z,4.67
2022-08-17T08:55:34.457Z,5.37
2022-08-17T08:58:07.637Z,5.40
2022-08-17T09:00:58.446Z,5.23
2022-08-17T09:04:21.523Z,5.10
2022-08-17T09:07:12.793Z,4.00
2022-08-17T09:09:53.364Z,5.20
2022-08-17T09:13:15.266Z,4.37
2022-08-17T09:15:50.237Z,4.93
2022-08-17T09:19:00.988Z,5.23
2022-08-17T09:21:52.828Z,4.60
2022-08-17T09:25:07.037Z,4.50
2022-08-17T09:27:52.369Z,4.90
2022-08-17T09:30:21.017Z,4.83
2022-08-17T09:32:56.180Z,5.37
2022-08-17T09:35:36.801Z,4.40
2022-08-17T09:38:50.516Z,5.30
2022-08-17T09:41:23.803Z,4.90
2022-08-17T09:44:00.218Z,4.97
2022-08-17T09:46:44.193Z,5.33
2022-08-17T09:49:35.310Z,5.77
2022-08-17T09:52:19.731Z,4.97
2022-08-17T09:54:50.865Z,4.67
2022-08-17T09:57:29.662Z,4.43
2022-08-17T10:00:16.434Z,5.20
2022-08-17T10:02:43.467Z,4.33
2022-08-17T10:05:18.001Z,4.50
2022-08-17T10:07:57.255Z,5.07
2022-08-17T10:10:56.484Z,5.70
2022-08-17T10:13:52.792Z,5.47
2022-08-17T10:16:30.103Z,5.67
2022-08-17T10:19:03.324Z,5.00
2022-08-17T10:22:00.764Z,5.47
2022-08-17T10:25:23.121Z,5.07
2022-08-17T10:28:05.949Z,5.07
2022-08-17T10:30:44.083Z,5.53
2022-08-17T10:33:19.801Z,5.17
2022-08-17T10:36:10.856Z,5.03
2022-08-17T10:39:06.399Z,4.57
2022-08-17T10:41:48.141Z,4.53
2022-08-17T10:44:37.387Z,4.73
2022-08-17T10:47:14.439Z,5.27
2022-08-17T10:49:47.719Z,5.57
2022-08-17T10:52:20.877Z,5.10
2022-08-17T10:54:48.808Z,4.90
2022-08-17T10:57:33.917Z,4.93
2022-08-17T11:00:15.955Z,5.57
2022-08-17T11:02:51.321Z,5.37
2022-08-17T11:05:43.950Z,6.07
2022-08-17T11:08:32.284Z,8.97
2022-08-17T11:11:08.155Z,11.80
2022-08-17T11:14:11.229Z,13.30
2022-08-17T11:16:51.523Z,12.03
2022-08-17T11:19:33.112Z,10.07
2022-08-17T11:22:33.521Z,8.07
2022-08-17T11:25:17.449Z,7.13
2022-08-17T11:27:53.676Z,6.33
2022-08-17T11:30:46.920Z,6.63
2022-08-17T11:33:33.987Z,5.23
2022-08-17T11:36:16.647Z,5.60
2022-08-17T11:38:57.955Z,6.83
2022-08-17T11:41:57.654Z,6.37
2022-08-17T11:44:33.161Z,6.33
2022-08-17T11:47:42.374Z,5.83
2022-08-17T11:50:55.874Z,4.97
2022-08-17T11:53:38.078Z,6.60
2022-08-17T11:56:29.098Z,6.90
2022-08-17T11:58:56.250Z,7.03
2022-08-17T12:01:23.023Z,9.77
2022-08-17T12:04:14.794Z,9.27
2022-08-17T12:06:56.908Z,7.60
2022-08-17T12:09:30.664Z,7.40
2022-08-17T12:12:12.627Z,6.43
2022-08-17T12:15:08.860Z,6.23
2022-08-17T12:17:39.209Z,6.17
2022-08-17T12:20:14.756Z,4.70
2022-08-17T12:22:48.205Z,4.93
2022-08-17T12:25:24.170Z,4.87
2022-08-17T12:28:05.009Z,5.37
2022-08-17T12:30:34.558Z,5.60
2022-08-17T12:33:01.470Z,5.37
2022-08-17T12:35:35.232Z,5.07
2022-08-17T12:38:06.460Z,5.37
2022-08-17T12:40:57.957Z,5.03
2022-08-17T12:43:30.476Z,5.97
2022-08-17T12:46:15.045Z,6.33
2022-08-17T12:48:58.709Z,10.27
2022-08-17T12:51:29.111Z,12.07
2022-08-17T12:53:56.646Z,10.90
2022-08-17T12:56:23.575Z,11.37
2022-08-17T12:58:54.283Z,11.67
2022-08-17T13:01:23.373Z,12.60
2022-08-17T13:03:53.613Z,11.37
2022-08-17T13:06:33.878Z,11.03
2022-08-17T13:09:35.654Z,11.53
2022-08-17T13:12:07.819Z,11.27
2022-08-17T13:14:35.349Z,9.47
2022-08-17T13:17:08.350Z,7.90
2022-08-17T13:19:48.518Z,7.70
2022-08-17T13:22:15.359Z,7.90
2022-08-17T13:24:53.217Z,7.10
2022-08-17T13:27:23.786Z,6.07
2022-08-17T13:29:56.348Z,7.00
2022-08-17T13:32:34.936Z,6.87
2022-08-17T13:35:29.722Z,8.43
2022-08-17T13:38:37.480Z,6.00
2022-08-17T13:41:07.382Z,6.30
2022-08-17T13:43:40.708Z,7.03
2022-08-17T13:46:11.067Z,5.90
2022-08-17T13:48:38.161Z,5.60
2022-08-17T13:51:15.399Z,4.57
2022-08-17T13:53:42.132Z,4.33
2022-08-17T13:56:37.587Z,3.53
2022-08-17T13:59:02.696Z,3.50
2022-08-17T14:01:29.654Z,3.73
2022-08-17T14:03:57.271Z,2.97
2022-08-17T14:06:51.630Z,3.73
2022-08-17T14:09:14.971Z,5.47
2022-08-17T14:11:42.516Z,5.47
2022-08-17T14:14:09.386Z,6.60
2022-08-17T14:16:40.233Z,6.00
2022-08-17T14:19:12.636Z,6.43
2022-08-17T14:21:44.509Z,7.53
2022-08-17T14:24:29.203Z,7.77
2022-08-17T14:26:57.199Z,7.63
2022-08-17T14:29:25.880Z,7.53
2022-08-17T14:31:54.297Z,7.13
2022-08-17T14:34:25.754Z,6.63
2022-08-17T14:36:52.965Z,6.43
2022-08-17T14:39:20.759Z,7.00
2022-08-17T14:41:48.257Z,6.60
2022-08-17T14:44:15.527Z,6.33
2022-08-17T14:46:44.399Z,6.50
2022-08-17T14:49:15.609Z,6.47
2022-08-17T14:51:52.733Z,5.27
2022-08-17T14:54:32.606Z,5.60
2022-08-17T14:57:23.096Z,5.20
2022-08-17T14:59:50.696Z,4.70
2022-08-17T15:02:30.003Z,4.73
2022-08-17T15:05:04.149Z,3.87
2022-08-17T15:07:31.621Z,3.70
2022-08-17T15:10:01.455Z,3.50
2022-08-17T15:12:33.190Z,2.80
2022-08-17T15:15:04.463Z,2.90
2022-08-17T15:17:44.565Z,2.60
2022-08-17T15:20:18.446Z,2.70
2022-08-17T15:22:46.990Z,3.57
2022-08-17T15:25:14.451Z,3.07
2022-08-17T15:27:41.808Z,3.00
2022-08-17T15:30:10.100Z,3.40
2022-08-17T15:32:39.180Z,3.43
2022-08-17T15:35:08.793Z,3.00
2022-08-17T15:37:36.414Z,3.00
2022-08-17T15:40:05.334Z,2.50
2022-08-17T15:42:32.940Z,3.07
2022-08-17T15:45:06.715Z,2.77
2022-08-17T15:47:33.677Z,3.03
2022-08-17T15:50:00.678Z,2.80
2022-08-17T15:52:32.079Z,2.90
2022-08-17T15:55:00.714Z,2.90
2022-08-17T15:57:28.123Z,2.97
2022-08-17T15:59:58.623Z,3.40
2022-08-17T16:03:29.439Z,3.27
2022-08-17T16:05:24.991Z,3.53
2022-08-17T16:07:53.477Z,2.83
2022-08-17T16:10:21.391Z,3.77
2022-08-17T16:12:50.324Z,3.57
2022-08-17T16:15:18.310Z,4.63
2022-08-17T16:17:45.244Z,3.90
2022-08-17T16:20:20.170Z,3.83
2022-08-17T16:22:48.677Z,3.93
2022-08-17T16:25:19.232Z,4.33
2022-08-17T16:27:49.140Z,3.10
2022-08-17T16:30:17.582Z,3.87
2022-08-17T16:32:44.880Z,3.83
2022-08-17T16:35:14.296Z,3.60
2022-08-17T16:37:41.763Z,3.73
2022-08-17T16:40:13.282Z,4.40
2022-08-17T16:42:40.823Z,3.37
2022-08-17T16:45:11.829Z,3.40
2022-08-17T16:47:39.517Z,3.60
2022-08-17T16:50:08.016Z,3.67
2022-08-17T16:52:35.319Z,4.27
2022-08-17T16:55:03.738Z,3.60
2022-08-17T16:57:30.845Z,3.60
2022-08-17T16:59:58.323Z,3.70
2022-08-17T17:02:39.005Z,3.60
2022-08-17T17:05:25.324Z,3.47
2022-08-17T17:08:09.212Z,2.87
2022-08-17T17:10:50.868Z,3.50
2022-08-17T17:13:35.401Z,3.63
2022-08-17T17:16:17.244Z,2.93
2022-08-17T17:18:57.304Z,3.13
2022-08-17T17:21:32.802Z,3.07
2022-08-17T17:24:06.709Z,3.00
2022-08-17T17:26:56.438Z,3.23
2022-08-17T17:29:35.821Z,3.47
2022-08-17T17:32:48.330Z,3.83
2022-08-17T17:35:20.794Z,3.40
2022-08-17T17:37:48.582Z,3.50
2022-08-17T17:40:24.608Z,3.57
2022-08-17T17:42:55.118Z,4.00
2022-08-17T17:45:26.114Z,3.80
2022-08-17T17:47:53.521Z,4.53
2022-08-17T17:50:27.622Z,4.90
2022-08-17T17:53:19.951Z,3.90
2022-08-17T17:56:39.849Z,4.37
2022-08-17T17:59:12.768Z,4.47
2022-08-17T18:01:54.442Z,4.10
2022-08-17T18:04:25.795Z,3.90
2022-08-17T18:07:01.827Z,3.90
2022-08-17T18:10:02.882Z,3.60
2022-08-17T18:12:38.172Z,4.60
2022-08-17T18:15:10.876Z,4.47
2022-08-17T18:17:37.849Z,4.47
2022-08-17T18:20:07.271Z,4.17
2022-08-17T18:22:34.185Z,4.07
2022-08-17T18:25:01.111Z,4.37
2022-08-17T18:27:40.805Z,4.60
2022-08-17T18:30:13.639Z,4.37
2022-08-17T18:32:44.401Z,3.83
2022-08-17T18:35:11.180Z,4.40
2022-08-17T18:38:02.914Z,4.70
2022-08-17T18:40:34.319Z,4.13
2022-08-17T18:43:02.939Z,4.37
2022-08-17T18:45:43.080Z,5.20
2022-08-17T18:48:28.922Z,5.30
2022-08-17T18:51:02.120Z,4.90
2022-08-17T18:53:39.035Z,5.17
2022-08-17T18:56:26.380Z,5.13
2022-08-17T18:58:53.164Z,4.80
2022-08-17T19:01:21.487Z,5.23
2022-08-17T19:04:34.657Z,6.17
2022-08-17T19:07:23.323Z,5.67
2022-08-17T19:10:05.649Z,5.40
2022-08-17T19:12:39.201Z,6.20
2022-08-17T19:15:10.111Z,7.03
2022-08-17T19:17:45.943Z,6.70
2022-08-17T19:20:19.473Z,6.90
2022-08-17T19:23:06.694Z,7.13
2022-08-17T19:25:40.360Z,7.20
2022-08-17T19:28:22.419Z,8.33
2022-08-17T19:30:54.667Z,6.60
2022-08-17T19:33:22.004Z,7.37
2022-08-17T19:35:59.321Z,6.73
2022-08-17T19:38:42.232Z,6.53
2022-08-17T19:41:28.421Z,5.87
2022-08-17T19:44:26.919Z,5.93
2022-08-17T19:47:00.748Z,5.67
2022-08-17T19:49:56.158Z,6.37
2022-08-17T19:52:36.329Z,6.03
2022-08-17T19:55:20.277Z,6.87
2022-08-17T19:58:06.486Z,7.60
2022-08-17T20:00:39.923Z,6.77
2022-08-17T20:03:46.396Z,6.50
2022-08-17T20:06:14.376Z,6.40
2022-08-17T20:08:58.198Z,7.70
2022-08-17T20:11:34.120Z,8.40
2022-08-17T20:14:12.560Z,7.93
2022-08-17T20:16:39.425Z,8.10
2022-08-17T20:19:20.989Z,7.90
2022-08-17T20:22:01.199Z,9.70
2022-08-17T20:24:35.173Z,8.70
2022-08-17T20:27:24.888Z,8.20
2022-08-17T20:30:33.036Z,8.80
2022-08-17T20:33:00.949Z,9.00
2022-08-17T20:35:36.478Z,8.13
2022-08-17T20:38:05.238Z,7.50
2022-08-17T20:40:55.090Z,7.10
2022-08-17T20:43:35.203Z,8.27
2022-08-17T20:46:41.569Z,7.90
2022-08-17T20:49:14.665Z,10.60
2022-08-17T20:52:10.293Z,11.33
2022-08-17T20:54:51.495Z,11.67
2022-08-17T20:57:33.598Z,12.27
2022-08-17T21:00:18.070Z,11.10
2022-08-17T21:03:12.134Z,10.77
2022-08-17T21:05:59.820Z,10.90
2022-08-17T21:08:41.326Z,10.53
2022-08-17T21:12:03.502Z,10.17
2022-08-17T21:14:18.280Z,9.93
2022-08-17T21:16:45.124Z,9.60
2022-08-17T21:19:23.755Z,11.03
2022-08-17T21:22:15.568Z,10.97
2022-08-17T21:25:24.822Z,10.30
2022-08-17T21:28:18.109Z,10.77
2022-08-17T21:30:56.666Z,9.57
2022-08-17T21:33:32.200Z,9.60
2022-08-17T21:36:14.236Z,11.23
2022-08-17T21:38:57.379Z,10.70
2022-08-17T21:41:44.308Z,11.13
2022-08-17T21:44:30.571Z,10.93
2022-08-17T21:47:24.550Z,10.30
2022-08-17T21:49:52.625Z,11.83
2022-08-17T21:52:23.785Z,10.57
2022-08-17T21:55:02.500Z,11.67
2022-08-17T21:58:11.467Z,12.10
2022-08-17T22:00:31.951Z,12.10
2022-08-17T22:03:02.371Z,11.53
2022-08-17T22:05:39.723Z,10.70
2022-08-17T22:08:16.554Z,11.37
2022-08-17T22:10:45.841Z,9.57
2022-08-17T22:13:22.200Z,9.63
2022-08-17T22:16:27.633Z,8.33
2022-08-17T22:18:58.030Z,8.97
2022-08-17T22:21:25.567Z,7.20
2022-08-17T22:24:04.990Z,9.27
2022-08-17T22:27:03.004Z,7.73
2022-08-17T22:29:57.385Z,7.10
2022-08-17T22:32:43.577Z,7.60
2022-08-17T22:35:35.893Z,7.20
2022-08-17T22:38:21.262Z,8.17
2022-08-17T22:40:54.488Z,7.57
2022-08-17T22:43:26.192Z,7.43
2022-08-17T22:45:56.712Z,8.87
2022-08-17T22:48:27.999Z,8.80
2022-08-17T22:51:17.523Z,8.57
2022-08-17T22:54:11.899Z,9.43
2022-08-17T22:57:05.356Z,8.83
2022-08-17T22:59:37.701Z,9.23
2022-08-17T23:02:26.326Z,9.53
2022-08-17T23:04:57.315Z,9.57
2022-08-17T23:07:24.216Z,9.53
2022-08-17T23:09:52.038Z,9.17
2022-08-17T23:12:26.327Z,9.20
2022-08-17T23:15:00.444Z,9.00
2022-08-17T23:17:37.098Z,8.83
2022-08-17T23:20:08.320Z,9.00
2022-08-17T23:22:38.149Z,8.10
2022-08-17T23:25:30.443Z,8.40
2022-08-17T23:28:01.693Z,8.40
2022-08-17T23:30:30.433Z,7.47
2022-08-17T23:33:03.505Z,8.57
2022-08-17T23:35:40.013Z,8.53
2022-08-17T23:38:12.241Z,8.17
2022-08-17T23:40:40.019Z,9.00
2022-08-17T23:43:23.581Z,8.97
2022-08-17T23:45:54.001Z,9.43
2022-08-17T23:48:32.475Z,10.17
2022-08-17T23:51:12.412Z,10.27
2022-08-17T23:53:44.039Z,9.73
2022-08-17T23:56:11.667Z,9.03
2022-08-17T23:58:42.253Z,9.37
